Other Surface Observations
Issued by NWS Great Falls, MT

Home | Current Version | Previous Version | Text Only | Print | Product List | Glossary On
Versions: 1 2 3 4 5 6 7 8 9 10 11 12 13 14 15 16 17 18 19 20 21 22 23 24 25 26 27 28 29 30 31 32 33 34 35 36 37 38 39 40 41 42 43 44 45 46 47 48 49 50
000
SXUS55 KTFX 031910
OSOTFX

AREA AWOS OBSERVATIONS
NATIONAL WEATHER SERVICE GREAT FALLS MT
0109 PM MDT Mon Aug 03 2015

METAR K6S8 031855Z AUTO 02005KT 40SM 27/09 A2996 RMK A01 T02720094
METAR K7S0 031855Z AUTO 27004KT 25SM 29/06 A2991 RMK A01 T02880061
METAR K7S1 031855Z AUTO 24003KT 25SM 25/04 A2998 RMK A01 T02500044
METAR K97M 031755Z AUTO 11009KT 40SM 27/09 A3002 RMK A01 T02660088
METAR K97M 030055Z AUTO 05006KT 40SM 27/06 A3000 RMK A01 T02660061
METAR K9S2 031855Z AUTO 16006KT 40SM 26/09 A3001 RMK A01 T02610094
METAR K9S5 031855Z AUTO 32002KT 25SM 28/04 A2996 RMK A01 T02830038
METAR KM75 031855Z AUTO 09009KT 40SM 30/11 A2991 RMK A01 T03000111
METAR KRPX 031855Z AUTO 07010KT 40SM 31/07 A2988 RMK A01 T03050072
METAR KS01 031755Z AUTO 07000KT 25SM 27/12 A2996 RMK A01 T02660116
METAR KS34 031755Z AUTO 31000KT 15SM 28/04 A2985 RMK A01 T02770038
METAR KTHM 031755Z AUTO 10004KT 25SM 28/02 A2987 RMK A01 T02830016



USA.gov is the U.S. government's official web portal to all federal, state and local government web resources and services.